createdAt,value
2023-02-23T00:00:05.109Z,6.18
2023-02-23T00:01:05.089Z,6.16
2023-02-23T00:02:05.077Z,6.19
2023-02-23T00:03:05.257Z,6.27
2023-02-23T00:04:05.110Z,6.16
2023-02-23T00:05:05.046Z,6.15
2023-02-23T00:06:05.050Z,6.13
2023-02-23T00:07:05.032Z,6.11
2023-02-23T00:08:05.018Z,6.16
2023-02-23T00:09:05.010Z,6.09
2023-02-23T00:10:05.096Z,6.13
2023-02-23T00:11:04.990Z,6.05
2023-02-23T00:12:04.977Z,6.15
2023-02-23T00:13:05.113Z,6.08
2023-02-23T00:14:04.957Z,6.12
2023-02-23T00:15:04.952Z,6.06
2023-02-23T00:16:05.007Z,6.00
2023-02-23T00:17:04.921Z,6.00
2023-02-23T00:18:04.909Z,6.03
2023-02-23T00:19:04.966Z,6.00
2023-02-23T00:20:04.892Z,6.06
2023-02-23T00:21:04.884Z,6.02
2023-02-23T00:22:04.889Z,6.00
2023-02-23T00:23:04.862Z,5.95
2023-02-23T00:24:04.866Z,6.00
2023-02-23T00:25:04.835Z,5.95
2023-02-23T00:26:04.830Z,6.00
2023-02-23T00:27:04.833Z,5.95
2023-02-23T00:28:04.826Z,5.98
2023-02-23T00:29:04.812Z,5.97
2023-02-23T00:30:04.785Z,5.97
2023-02-23T00:31:04.856Z,5.95
2023-02-23T00:32:04.905Z,6.00
2023-02-23T00:33:04.776Z,5.98
2023-02-23T00:34:04.749Z,6.02
2023-02-23T00:35:04.752Z,6.00
2023-02-23T00:36:04.730Z,6.00
2023-02-23T00:37:04.731Z,5.98
2023-02-23T00:38:04.709Z,6.02
2023-02-23T00:39:04.722Z,6.00
2023-02-23T00:40:04.686Z,6.08
2023-02-23T00:41:04.674Z,5.98
2023-02-23T00:42:04.663Z,5.95
2023-02-23T00:43:04.668Z,5.93
2023-02-23T00:44:04.653Z,6.02
2023-02-23T00:45:04.656Z,6.02
2023-02-23T00:46:04.719Z,6.02
2023-02-23T00:47:04.612Z,6.00
2023-02-23T00:48:04.600Z,6.02
2023-02-23T00:49:04.605Z,5.97
2023-02-23T00:50:04.584Z,5.93
2023-02-23T00:51:04.578Z,5.94
2023-02-23T00:52:04.580Z,5.91
2023-02-23T00:53:04.553Z,5.85
2023-02-23T00:54:04.543Z,5.94
2023-02-23T00:55:04.543Z,5.93
2023-02-23T00:56:04.522Z,5.90
2023-02-23T00:57:04.510Z,5.91
2023-02-23T00:58:04.525Z,5.98
2023-02-23T00:59:04.502Z,5.88
2023-02-23T01:00:04.493Z,5.91
2023-02-23T01:01:04.562Z,5.90
2023-02-23T01:02:04.511Z,5.93
2023-02-23T01:03:04.461Z,5.88
2023-02-23T01:04:04.454Z,5.85
2023-02-23T01:05:04.430Z,5.91
2023-02-23T01:06:04.424Z,5.88
2023-02-23T01:07:04.398Z,5.91
2023-02-23T01:08:04.423Z,5.94
2023-02-23T01:09:04.373Z,5.93
2023-02-23T01:10:04.379Z,5.90
2023-02-23T01:11:04.373Z,5.82
2023-02-23T01:12:04.348Z,5.87
2023-02-23T01:13:04.339Z,5.87
2023-02-23T01:14:04.326Z,5.88
2023-02-23T01:15:04.323Z,5.88
2023-02-23T01:16:04.377Z,5.87
2023-02-23T01:17:04.318Z,5.87
2023-02-23T01:18:04.277Z,5.91
2023-02-23T01:19:04.275Z,5.79
2023-02-23T01:20:04.263Z,5.77
2023-02-23T01:21:04.246Z,5.77
2023-02-23T01:22:04.252Z,5.73
2023-02-23T01:23:04.228Z,5.79
2023-02-23T01:24:04.242Z,5.73
2023-02-23T01:25:04.203Z,5.73
2023-02-23T01:26:04.194Z,5.66
2023-02-23T01:27:04.200Z,5.70
2023-02-23T01:28:04.186Z,5.75
2023-02-23T01:29:04.177Z,5.76
2023-02-23T01:30:04.159Z,5.67
2023-02-23T01:31:04.277Z,5.69
2023-02-23T01:32:05.064Z,5.75
2023-02-23T01:33:04.152Z,5.67
2023-02-23T01:34:04.122Z,5.61
2023-02-23T01:35:04.102Z,5.72
2023-02-23T01:36:04.095Z,5.76
2023-02-23T01:37:04.115Z,5.69
2023-02-23T01:38:04.063Z,5.65
2023-02-23T01:39:04.067Z,5.66
2023-02-23T01:40:04.058Z,5.79
2023-02-23T01:41:04.044Z,5.73
2023-02-23T01:42:04.022Z,5.59
2023-02-23T01:43:04.048Z,5.62
2023-02-23T01:44:04.080Z,5.65
2023-02-23T01:45:03.997Z,5.57
2023-02-23T01:46:04.089Z,5.58
2023-02-23T01:47:03.981Z,5.57
2023-02-23T01:48:04.000Z,5.61
2023-02-23T01:49:03.972Z,5.57
2023-02-23T01:50:03.954Z,5.57
2023-02-23T01:51:03.948Z,5.54
2023-02-23T01:52:03.923Z,5.69
2023-02-23T01:53:03.936Z,5.54
2023-02-23T01:54:03.911Z,5.62
2023-02-23T01:55:03.898Z,5.57
2023-02-23T01:56:03.891Z,5.59
2023-02-23T01:57:03.871Z,5.52
2023-02-23T01:58:03.857Z,5.57
2023-02-23T01:59:03.861Z,5.61
2023-02-23T02:00:03.849Z,5.57
2023-02-23T02:01:03.829Z,5.57
2023-02-23T02:02:03.839Z,5.62
2023-02-23T02:03:03.804Z,5.65
2023-02-23T02:04:03.797Z,5.58
2023-02-23T02:05:03.834Z,5.59
2023-02-23T02:06:03.777Z,5.59
2023-02-23T02:07:03.821Z,5.58
2023-02-23T02:08:03.759Z,5.59
2023-02-23T02:09:03.756Z,5.51
2023-02-23T02:10:03.750Z,5.57
2023-02-23T02:11:03.729Z,5.67
2023-02-23T02:12:03.709Z,5.62
2023-02-23T02:13:03.707Z,5.59
2023-02-23T02:14:03.704Z,5.62
2023-02-23T02:15:11.417Z,5.58
2023-02-23T02:16:03.694Z,5.59
2023-02-23T02:17:03.662Z,5.58
2023-02-23T02:18:03.655Z,5.59
2023-02-23T02:19:03.643Z,5.59
2023-02-23T02:20:03.639Z,5.65
2023-02-23T02:21:03.650Z,5.57
2023-02-23T02:22:03.610Z,5.58
2023-02-23T02:23:03.600Z,5.61
2023-02-23T02:24:03.602Z,5.61
2023-02-23T02:25:03.663Z,5.43
2023-02-23T02:26:03.567Z,5.57
2023-02-23T02:27:03.559Z,5.52
2023-02-23T02:28:03.549Z,5.55
2023-02-23T02:29:03.534Z,5.44
2023-02-23T02:30:03.527Z,5.47
2023-02-23T02:31:03.543Z,5.47
2023-02-23T02:32:03.675Z,5.54
2023-02-23T02:33:03.482Z,5.51
2023-02-23T02:34:03.476Z,5.50
2023-02-23T02:35:03.463Z,5.50
2023-02-23T02:36:03.458Z,5.55
2023-02-23T02:37:03.475Z,5.55
2023-02-23T02:38:03.437Z,5.47
2023-02-23T02:39:03.456Z,5.44
2023-02-23T02:40:03.420Z,5.37
2023-02-23T02:41:03.408Z,5.36
2023-02-23T02:42:03.406Z,5.41
2023-02-23T02:43:03.391Z,5.32
2023-02-23T02:44:03.371Z,5.33
2023-02-23T02:45:03.386Z,5.27
2023-02-23T02:46:03.403Z,5.34
2023-02-23T02:47:03.338Z,5.36
2023-02-23T02:48:03.345Z,5.36
2023-02-23T02:49:03.316Z,5.44
2023-02-23T02:50:03.301Z,5.39
2023-02-23T02:51:03.295Z,5.39
2023-02-23T02:52:03.296Z,5.37
2023-02-23T02:53:03.304Z,5.32
2023-02-23T02:54:03.277Z,5.36
2023-02-23T02:55:03.257Z,5.33
2023-02-23T02:56:03.237Z,5.24
2023-02-23T02:57:03.237Z,5.22
2023-02-23T02:58:03.222Z,5.29
2023-02-23T02:59:03.228Z,5.29
2023-02-23T03:00:03.228Z,5.32
2023-02-23T03:01:03.194Z,5.21
2023-02-23T03:02:03.174Z,5.24
2023-02-23T03:03:03.164Z,5.30
2023-02-23T03:04:03.162Z,5.29
2023-02-23T03:05:03.244Z,5.16
2023-02-23T03:06:03.172Z,5.12
2023-02-23T03:07:03.123Z,5.12
2023-02-23T03:08:03.116Z,5.22
2023-02-23T03:09:03.127Z,5.21
2023-02-23T03:10:03.091Z,5.16
2023-02-23T03:11:03.085Z,5.06
2023-02-23T03:12:03.094Z,5.14
2023-02-23T03:13:03.074Z,5.11
2023-02-23T03:14:03.049Z,5.09
2023-02-23T03:15:03.048Z,5.14
2023-02-23T03:16:03.070Z,5.09
2023-02-23T03:17:03.021Z,5.12
2023-02-23T03:18:03.017Z,5.12
2023-02-23T03:19:03.011Z,5.03
2023-02-23T03:20:02.992Z,5.14
2023-02-23T03:21:02.981Z,4.98
2023-02-23T03:22:02.967Z,5.00
2023-02-23T03:23:02.950Z,4.94
2023-02-23T03:24:03.171Z,4.94
2023-02-23T03:25:02.962Z,4.93
2023-02-23T03:26:02.936Z,4.94
2023-02-23T03:27:02.914Z,4.88
2023-02-23T03:28:02.912Z,4.91
2023-02-23T03:29:02.894Z,4.91
2023-02-23T03:30:02.884Z,4.94
2023-02-23T03:31:02.877Z,4.91
2023-02-23T03:32:03.025Z,4.86
2023-02-23T03:33:02.868Z,4.91
2023-02-23T03:34:02.840Z,4.93
2023-02-23T03:35:02.844Z,4.83
2023-02-23T03:36:02.819Z,4.83
2023-02-23T03:37:02.824Z,4.78
2023-02-23T03:38:02.798Z,4.83
2023-02-23T03:39:02.814Z,4.79
2023-02-23T03:40:02.795Z,4.85
2023-02-23T03:41:02.855Z,4.74
2023-02-23T03:42:02.811Z,4.77
2023-02-23T03:43:02.759Z,4.82
2023-02-23T03:44:02.764Z,4.71
2023-02-23T03:45:02.761Z,4.72
2023-02-23T03:46:02.792Z,4.75
2023-02-23T03:47:02.718Z,4.67
2023-02-23T03:48:02.698Z,4.71
2023-02-23T03:49:02.681Z,4.69
2023-02-23T03:50:02.675Z,4.67
2023-02-23T03:51:02.683Z,4.66
2023-02-23T03:52:02.670Z,4.60
2023-02-23T03:53:02.652Z,4.66
2023-02-23T03:54:02.630Z,4.57
2023-02-23T03:55:02.630Z,4.63
2023-02-23T03:56:02.608Z,4.53
2023-02-23T03:57:02.623Z,4.59
2023-02-23T03:58:02.605Z,4.61
2023-02-23T03:59:02.579Z,4.60
2023-02-23T04:00:02.566Z,4.61
2023-02-23T04:01:02.561Z,4.54
2023-02-23T04:02:02.611Z,4.67
2023-02-23T04:03:02.560Z,4.66
2023-02-23T04:04:02.536Z,4.63
2023-02-23T04:05:02.538Z,4.61
2023-02-23T04:06:02.507Z,4.63
2023-02-23T04:07:02.507Z,4.57
2023-02-23T04:08:02.477Z,4.63
2023-02-23T04:09:02.488Z,4.61
2023-02-23T04:10:02.462Z,4.59
2023-02-23T04:11:02.467Z,4.60
2023-02-23T04:12:02.438Z,4.64
2023-02-23T04:13:02.446Z,4.67
2023-02-23T04:14:02.447Z,4.54
2023-02-23T04:15:02.416Z,4.61
2023-02-23T04:16:02.402Z,4.63
2023-02-23T04:17:02.394Z,4.63
2023-02-23T04:18:02.379Z,4.61
2023-02-23T04:19:02.385Z,4.57
2023-02-23T04:20:02.363Z,4.57
2023-02-23T04:21:02.408Z,4.56
2023-02-23T04:22:02.339Z,4.54
2023-02-23T04:23:02.325Z,4.54
2023-02-23T04:24:02.321Z,4.53
2023-02-23T04:25:02.333Z,4.59
2023-02-23T04:26:02.307Z,4.56
2023-02-23T04:27:02.287Z,4.54
2023-02-23T04:28:02.288Z,4.61
2023-02-23T04:29:02.411Z,4.61
2023-02-23T04:30:02.256Z,4.53
2023-02-23T04:31:02.322Z,4.54
2023-02-23T04:32:02.349Z,4.53
2023-02-23T04:33:02.242Z,4.54
2023-02-23T04:34:02.215Z,4.59
2023-02-23T04:35:02.218Z,4.54
2023-02-23T04:36:02.210Z,4.57
2023-02-23T04:37:02.189Z,4.54
2023-02-23T04:38:02.184Z,4.57
2023-02-23T04:39:02.171Z,4.53
2023-02-23T04:40:02.175Z,4.56
2023-02-23T04:41:02.141Z,4.45
2023-02-23T04:42:02.147Z,4.48
2023-02-23T04:43:02.129Z,4.43
2023-02-23T04:44:02.133Z,4.34
2023-02-23T04:45:02.187Z,4.45
2023-02-23T04:46:02.161Z,4.42
2023-02-23T04:47:02.084Z,4.38
2023-02-23T04:48:02.075Z,4.36
2023-02-23T04:49:02.076Z,4.34
2023-02-23T04:50:02.072Z,4.45
2023-02-23T04:51:02.039Z,4.31
2023-02-23T04:52:02.036Z,4.31
2023-02-23T04:53:02.013Z,4.31
2023-02-23T04:54:02.018Z,4.41
2023-02-23T04:55:02.022Z,4.35
2023-02-23T04:56:01.994Z,4.41
2023-02-23T04:57:01.994Z,4.38
2023-02-23T04:58:01.967Z,4.42
2023-02-23T04:59:01.972Z,4.34
2023-02-23T05:00:01.969Z,4.34
2023-02-23T05:01:01.973Z,4.28
2023-02-23T05:02:01.927Z,4.36
2023-02-23T05:03:01.920Z,4.41
2023-02-23T05:04:01.923Z,4.39
2023-02-23T05:05:01.974Z,4.31
2023-02-23T05:06:01.885Z,4.27
2023-02-23T05:07:01.880Z,4.36
2023-02-23T05:08:01.875Z,4.31
2023-02-23T05:09:01.864Z,4.39
2023-02-23T05:10:01.881Z,4.31
2023-02-23T05:11:01.828Z,4.24
2023-02-23T05:12:01.834Z,4.28
2023-02-23T05:13:01.850Z,4.27
2023-02-23T05:14:01.816Z,4.27
2023-02-23T05:15:01.800Z,4.26
2023-02-23T05:16:01.804Z,4.26
2023-02-23T05:17:01.793Z,4.23
2023-02-23T05:18:01.769Z,4.28
2023-02-23T05:19:01.758Z,4.20
2023-02-23T05:20:01.760Z,4.16
2023-02-23T05:21:01.739Z,4.17
2023-02-23T05:22:01.767Z,4.16
2023-02-23T05:23:01.730Z,4.12
2023-02-23T05:24:01.697Z,4.12
2023-02-23T05:25:01.693Z,4.09
2023-02-23T05:26:01.681Z,4.05
2023-02-23T05:27:01.681Z,3.98
2023-02-23T05:28:01.682Z,4.05
2023-02-23T05:29:01.653Z,4.12
2023-02-23T05:30:01.659Z,4.05
2023-02-23T05:31:01.737Z,4.03
2023-02-23T05:32:01.799Z,4.06
2023-02-23T05:33:01.634Z,4.08
2023-02-23T05:34:01.595Z,4.03
2023-02-23T05:35:01.607Z,4.08
2023-02-23T05:36:01.573Z,4.03
2023-02-23T05:37:01.576Z,3.98
2023-02-23T05:38:01.568Z,3.81
2023-02-23T05:39:01.571Z,3.90
2023-02-23T05:40:01.551Z,3.87
2023-02-23T05:41:01.526Z,3.88
2023-02-23T05:42:01.513Z,3.81
2023-02-23T05:43:01.505Z,3.84
2023-02-23T05:44:01.502Z,3.92
2023-02-23T05:45:01.472Z,3.84
2023-02-23T05:46:01.597Z,3.84
2023-02-23T05:47:01.454Z,3.87
2023-02-23T05:48:01.458Z,3.85
2023-02-23T05:49:01.463Z,3.85
2023-02-23T05:50:01.435Z,3.82
2023-02-23T05:51:01.417Z,3.87
2023-02-23T05:52:01.408Z,3.78
2023-02-23T05:53:01.405Z,3.74
2023-02-23T05:54:01.381Z,3.69
2023-02-23T05:55:01.374Z,3.72
2023-02-23T05:56:01.377Z,3.72
2023-02-23T05:57:01.924Z,3.73
2023-02-23T05:58:01.336Z,3.69
2023-02-23T05:59:01.344Z,3.67
2023-02-23T06:00:01.327Z,3.63
2023-02-23T06:01:01.303Z,3.62
2023-02-23T06:02:01.292Z,3.69
2023-02-23T06:03:01.311Z,3.66
2023-02-23T06:04:01.385Z,3.67
2023-02-23T06:05:01.306Z,3.73
2023-02-23T06:06:01.254Z,3.76
2023-02-23T06:07:01.239Z,3.76
2023-02-23T06:08:01.237Z,3.81
2023-02-23T06:09:01.222Z,3.73
2023-02-23T06:10:01.229Z,3.74
2023-02-23T06:11:01.236Z,3.80
2023-02-23T06:12:01.184Z,3.81
2023-02-23T06:13:01.190Z,3.84
2023-02-23T06:14:01.174Z,3.81
2023-02-23T06:15:01.172Z,3.82
2023-02-23T06:16:01.214Z,3.82
2023-02-23T06:17:01.191Z,3.82
2023-02-23T06:18:01.138Z,3.84
2023-02-23T06:19:01.140Z,3.88
2023-02-23T06:20:01.114Z,3.82
2023-02-23T06:21:01.182Z,3.78
2023-02-23T06:22:01.101Z,3.81
2023-02-23T06:23:01.071Z,3.73
2023-02-23T06:24:01.101Z,3.81
2023-02-23T06:25:01.050Z,3.84
2023-02-23T06:26:01.056Z,3.91
2023-02-23T06:27:01.051Z,3.96
2023-02-23T06:28:01.065Z,3.91
2023-02-23T06:29:01.008Z,3.88
2023-02-23T06:30:00.996Z,4.02
2023-02-23T06:31:01.141Z,3.99
2023-02-23T06:32:01.282Z,4.08
2023-02-23T06:33:00.977Z,4.06
2023-02-23T06:34:00.964Z,4.08
2023-02-23T06:35:00.982Z,4.09
2023-02-23T06:36:00.942Z,4.12
2023-02-23T06:37:00.952Z,4.05
2023-02-23T06:38:00.922Z,4.18
2023-02-23T06:39:00.917Z,4.08
2023-02-23T06:40:00.890Z,4.10
2023-02-23T06:41:00.908Z,4.13
2023-02-23T06:42:00.892Z,4.21
2023-02-23T06:43:00.868Z,4.18
2023-02-23T06:44:00.866Z,4.21
2023-02-23T06:45:00.845Z,4.24
2023-02-23T06:46:00.839Z,4.24
2023-02-23T06:47:00.822Z,4.36
2023-02-23T06:48:00.844Z,4.27
2023-02-23T06:49:00.802Z,4.26
2023-02-23T06:50:00.804Z,4.31
2023-02-23T06:51:00.792Z,4.39
2023-02-23T06:52:00.774Z,4.36
2023-02-23T06:53:00.812Z,4.34
2023-02-23T06:54:00.752Z,4.30
2023-02-23T06:55:00.752Z,4.30
2023-02-23T06:56:00.729Z,4.35
2023-02-23T06:57:00.728Z,4.38
2023-02-23T06:58:00.727Z,4.35
2023-02-23T06:59:00.703Z,4.43
2023-02-23T07:00:00.710Z,4.34
2023-02-23T07:01:00.709Z,4.38
2023-02-23T07:02:00.694Z,4.38
2023-02-23T07:03:00.660Z,4.39
2023-02-23T07:04:00.723Z,4.42
2023-02-23T07:05:00.649Z,4.39
2023-02-23T07:06:00.624Z,4.49
2023-02-23T07:07:00.624Z,4.54
2023-02-23T07:08:00.606Z,4.54
2023-02-23T07:09:00.685Z,4.54
2023-02-23T07:10:00.576Z,4.61
2023-02-23T07:11:00.567Z,4.74
2023-02-23T07:12:00.567Z,4.59
2023-02-23T07:13:00.559Z,4.69
2023-02-23T07:14:00.541Z,4.66
2023-02-23T07:15:00.541Z,4.71
2023-02-23T07:16:00.584Z,4.77
2023-02-23T07:17:00.512Z,4.72
2023-02-23T07:18:00.503Z,4.63
2023-02-23T07:19:00.470Z,4.64
2023-02-23T07:20:00.482Z,4.74
2023-02-23T07:21:00.474Z,4.72
2023-02-23T07:22:00.454Z,4.69
2023-02-23T07:23:00.447Z,4.69
2023-02-23T07:24:00.437Z,4.67
2023-02-23T07:25:00.436Z,4.71
2023-02-23T07:26:00.411Z,4.67
2023-02-23T07:27:00.384Z,4.75
2023-02-23T07:28:00.393Z,4.75
2023-02-23T07:29:00.379Z,4.67
2023-02-23T07:30:00.374Z,4.72
2023-02-23T07:31:00.387Z,4.77
2023-02-23T07:32:00.524Z,4.74
2023-02-23T07:33:00.349Z,4.82
2023-02-23T07:34:00.306Z,4.78
2023-02-23T07:35:00.312Z,4.78
2023-02-23T07:36:00.299Z,4.78
2023-02-23T07:37:00.300Z,4.86
2023-02-23T07:38:00.278Z,4.83
2023-02-23T07:39:00.264Z,4.83
2023-02-23T07:40:01.352Z,4.94
2023-02-23T07:41:00.360Z,4.96
2023-02-23T07:42:00.244Z,4.88
2023-02-23T07:43:00.238Z,4.85
2023-02-23T07:44:00.207Z,4.98
2023-02-23T07:45:00.219Z,4.93
2023-02-23T07:46:00.271Z,4.86
2023-02-23T07:47:00.211Z,5.07
2023-02-23T07:48:00.163Z,5.03
2023-02-23T07:49:00.170Z,5.03
2023-02-23T07:50:00.174Z,5.06
2023-02-23T07:51:00.134Z,5.03
2023-02-23T07:52:00.133Z,5.00
2023-02-23T07:53:00.122Z,5.06
2023-02-23T07:54:00.118Z,4.98
2023-02-23T07:55:00.114Z,5.18
2023-02-23T07:56:00.110Z,5.14
2023-02-23T07:57:00.138Z,5.11
2023-02-23T07:58:00.103Z,5.22
2023-02-23T07:59:00.048Z,5.24
2023-02-23T08:00:00.061Z,5.27
2023-02-23T08:01:00.100Z,5.25
2023-02-23T08:02:00.023Z,5.30
2023-02-23T08:03:00.029Z,5.36
2023-02-23T08:04:00.028Z,5.30
2023-02-23T08:05:00.000Z,5.33
2023-02-23T08:05:59.996Z,5.36
2023-02-23T08:06:59.970Z,5.36
2023-02-23T08:07:59.957Z,5.41
2023-02-23T08:08:59.951Z,5.52
2023-02-23T08:09:59.943Z,5.51
2023-02-23T08:10:59.934Z,5.55
2023-02-23T08:11:59.919Z,5.51
2023-02-23T08:12:59.984Z,5.44
2023-02-23T08:13:59.908Z,5.51
2023-02-23T08:14:59.893Z,5.48
2023-02-23T08:15:59.903Z,5.51
2023-02-23T08:16:59.891Z,5.61
2023-02-23T08:17:59.851Z,5.59
2023-02-23T08:18:59.840Z,5.59
2023-02-23T08:19:59.837Z,5.66
2023-02-23T08:20:59.861Z,5.59
2023-02-23T08:21:59.819Z,5.66
2023-02-23T08:22:59.796Z,5.65
2023-02-23T08:23:59.800Z,5.79
2023-02-23T08:24:59.803Z,5.76
2023-02-23T08:25:59.794Z,5.84
2023-02-23T08:26:59.760Z,5.77
2023-02-23T08:27:59.749Z,5.82
2023-02-23T08:28:59.838Z,5.90
2023-02-23T08:29:59.729Z,5.88
2023-02-23T08:30:59.832Z,5.88
2023-02-23T08:31:59.914Z,5.93
2023-02-23T08:32:59.696Z,5.94
2023-02-23T08:33:59.702Z,5.91
2023-02-23T08:34:59.680Z,6.00
2023-02-23T08:35:59.674Z,6.03
2023-02-23T08:36:59.646Z,6.02
2023-02-23T08:37:59.652Z,6.02
2023-02-23T08:38:59.656Z,5.98
2023-02-23T08:39:59.629Z,6.05
2023-02-23T08:40:59.607Z,5.98
2023-02-23T08:41:59.604Z,6.09
2023-02-23T08:42:59.603Z,6.02
2023-02-23T08:43:59.577Z,6.11
2023-02-23T08:44:59.601Z,6.05
2023-02-23T08:45:59.660Z,6.24
2023-02-23T08:46:59.538Z,6.24
2023-02-23T08:47:59.546Z,6.24
2023-02-23T08:48:59.551Z,6.31
2023-02-23T08:49:59.515Z,6.40
2023-02-23T08:50:59.520Z,6.40
2023-02-23T08:51:59.484Z,6.43
2023-02-23T08:52:59.475Z,6.46
2023-02-23T08:53:59.488Z,6.50
2023-02-23T08:54:59.460Z,6.55
2023-02-23T08:55:59.473Z,6.68
2023-02-23T08:56:59.446Z,6.57
2023-02-23T08:57:59.424Z,6.55
2023-02-23T08:58:59.406Z,6.63
2023-02-23T08:59:59.402Z,6.60
2023-02-23T09:00:59.421Z,6.67
2023-02-23T09:01:59.400Z,6.74
2023-02-23T09:02:59.378Z,6.73
2023-02-23T09:03:59.361Z,6.75
2023-02-23T09:04:59.351Z,6.75
2023-02-23T09:05:59.333Z,6.92
2023-02-23T09:06:59.338Z,6.91
2023-02-23T09:07:59.327Z,6.93
2023-02-23T09:08:59.307Z,6.93
2023-02-23T09:09:59.298Z,6.91
2023-02-23T09:10:59.277Z,6.93
2023-02-23T09:12:00.052Z,6.92
2023-02-23T09:12:59.252Z,6.93
2023-02-23T09:13:59.274Z,7.03
2023-02-23T09:14:59.238Z,6.99
2023-02-23T09:15:59.385Z,7.07
2023-02-23T09:16:59.539Z,7.13
2023-02-23T09:17:59.210Z,7.13
2023-02-23T09:18:59.218Z,7.04
2023-02-23T09:19:59.214Z,7.11
2023-02-23T09:20:59.188Z,7.19
2023-02-23T09:21:59.163Z,7.18
2023-02-23T09:22:59.167Z,7.21
2023-02-23T09:23:59.152Z,7.29
2023-02-23T09:24:59.184Z,7.34
2023-02-23T09:25:59.172Z,7.42
2023-02-23T09:26:59.117Z,7.37
2023-02-23T09:27:59.122Z,7.50
2023-02-23T09:28:59.104Z,7.71
2023-02-23T09:29:59.091Z,7.66
2023-02-23T09:30:59.153Z,7.73
2023-02-23T09:31:59.204Z,7.71
2023-02-23T09:32:59.066Z,7.74
2023-02-23T09:33:59.036Z,7.74
2023-02-23T09:34:59.021Z,7.92
2023-02-23T09:35:59.035Z,7.88
2023-02-23T09:36:59.010Z,7.94
2023-02-23T09:37:59.011Z,8.09
2023-02-23T09:38:59.004Z,8.16
2023-02-23T09:39:58.984Z,8.19
2023-02-23T09:40:58.972Z,8.05
2023-02-23T09:41:58.963Z,8.21
2023-02-23T09:42:58.938Z,8.29
2023-02-23T09:43:58.937Z,8.35
2023-02-23T09:44:58.913Z,8.41
2023-02-23T09:45:58.959Z,8.49
2023-02-23T09:46:58.899Z,8.47
2023-02-23T09:47:59.786Z,8.62
2023-02-23T09:48:58.913Z,8.74
2023-02-23T09:49:58.896Z,8.77
2023-02-23T09:50:58.856Z,8.81
2023-02-23T09:51:58.857Z,8.83
2023-02-23T09:52:59.661Z,8.80
2023-02-23T09:53:58.834Z,8.85
2023-02-23T09:54:58.833Z,8.88
2023-02-23T09:55:58.816Z,8.92
2023-02-23T09:56:58.795Z,8.93
2023-02-23T09:57:58.788Z,8.93
2023-02-23T09:58:58.787Z,8.93
2023-02-23T09:59:58.770Z,8.86
2023-02-23T10:00:58.749Z,8.92
2023-02-23T10:01:58.819Z,9.01
2023-02-23T10:02:58.754Z,9.08
2023-02-23T10:03:58.749Z,9.06
2023-02-23T10:04:58.809Z,9.09
2023-02-23T10:05:58.693Z,9.08
2023-02-23T10:06:58.699Z,9.03
2023-02-23T10:07:58.689Z,9.18
2023-02-23T10:08:58.673Z,9.14
2023-02-23T10:09:58.766Z,9.23
2023-02-23T10:10:58.652Z,9.29
2023-02-23T10:11:58.661Z,9.51
2023-02-23T10:12:58.642Z,9.42
2023-02-23T10:13:58.624Z,9.32
2023-02-23T10:14:58.609Z,9.41
2023-02-23T10:15:58.611Z,9.40
2023-02-23T10:16:58.577Z,9.33
2023-02-23T10:17:58.564Z,9.50
2023-02-23T10:18:58.589Z,9.59
2023-02-23T10:19:58.547Z,9.57
2023-02-23T10:20:58.569Z,9.51
2023-02-23T10:21:58.538Z,9.51
2023-02-23T10:22:58.518Z,9.51
2023-02-23T10:23:58.509Z,9.51
2023-02-23T10:24:58.515Z,9.52
2023-02-23T10:25:58.479Z,9.70
2023-02-23T10:26:58.484Z,9.57
2023-02-23T10:27:58.482Z,9.52
2023-02-23T10:28:58.469Z,9.62
2023-02-23T10:29:58.468Z,9.69
2023-02-23T10:30:58.587Z,9.77
2023-02-23T10:31:58.537Z,9.84
2023-02-23T10:32:58.406Z,9.80
2023-02-23T10:33:58.397Z,9.96
2023-02-23T10:34:58.396Z,10.03
2023-02-23T10:36:12.601Z,10.01
2023-02-23T10:36:59.421Z,9.85
2023-02-23T10:37:58.359Z,9.91
2023-02-23T10:38:58.354Z,10.03
2023-02-23T10:39:58.337Z,10.09
2023-02-23T10:40:58.321Z,9.88
2023-02-23T10:41:58.319Z,10.08
2023-02-23T10:42:58.320Z,10.17
2023-02-23T10:44:02.605Z,10.17
2023-02-23T10:44:59.279Z,10.21
2023-02-23T10:45:58.269Z,10.30
2023-02-23T10:46:58.274Z,10.20
2023-02-23T10:47:58.253Z,10.17
2023-02-23T10:48:58.248Z,10.12
2023-02-23T10:49:58.230Z,10.03
2023-02-23T10:50:58.218Z,9.94
2023-02-23T10:51:58.254Z,9.94
2023-02-23T10:52:58.215Z,9.94
2023-02-23T10:54:05.012Z,9.91
2023-02-23T10:54:59.168Z,9.93
2023-02-23T10:55:58.169Z,9.96
2023-02-23T10:56:58.153Z,9.75
2023-02-23T10:57:58.161Z,9.77
2023-02-23T10:58:58.146Z,9.93
2023-02-23T10:59:58.125Z,10.14
2023-02-23T11:00:58.121Z,10.41
2023-02-23T11:02:02.426Z,10.41
2023-02-23T11:02:58.108Z,10.68
2023-02-23T11:04:06.027Z,10.87
2023-02-23T11:04:59.175Z,11.01
2023-02-23T11:05:58.072Z,10.98
2023-02-23T11:06:58.048Z,11.03
2023-02-23T11:07:58.043Z,11.15
2023-02-23T11:08:58.047Z,11.09
2023-02-23T11:09:58.048Z,11.22
2023-02-23T11:10:58.014Z,11.18
2023-02-23T11:11:57.996Z,11.18
2023-02-23T11:12:58.000Z,11.40
2023-02-23T11:13:57.978Z,11.20
2023-02-23T11:14:57.965Z,11.18
2023-02-23T11:15:57.990Z,11.13
2023-02-23T11:16:57.937Z,11.18
2023-02-23T11:17:57.962Z,11.11
2023-02-23T11:18:57.914Z,11.08
2023-02-23T11:19:57.911Z,11.09
2023-02-23T11:20:57.889Z,11.11
2023-02-23T11:21:57.889Z,11.05
2023-02-23T11:23:03.571Z,10.97
2023-02-23T11:23:58.877Z,11.00
2023-02-23T11:24:57.905Z,11.05
2023-02-23T11:25:57.854Z,10.91
2023-02-23T11:26:57.872Z,11.04
2023-02-23T11:27:57.812Z,11.01
2023-02-23T11:28:57.809Z,11.00
2023-02-23T11:29:57.797Z,11.08
2023-02-23T11:30:57.880Z,10.91
2023-02-23T11:31:57.876Z,11.15
2023-02-23T11:32:57.775Z,10.98
2023-02-23T11:33:57.754Z,10.93
2023-02-23T11:34:57.736Z,10.95
2023-02-23T11:35:57.733Z,11.12
2023-02-23T11:36:57.726Z,11.20
2023-02-23T11:37:57.701Z,11.28
2023-02-23T11:38:57.710Z,11.34
2023-02-23T11:39:57.681Z,11.45
2023-02-23T11:40:57.696Z,11.52
2023-02-23T11:41:57.688Z,11.37
2023-02-23T11:42:57.659Z,11.43
2023-02-23T11:43:57.658Z,11.55
2023-02-23T11:44:57.730Z,11.67
2023-02-23T11:45:57.705Z,11.67
2023-02-23T11:46:57.668Z,11.59
2023-02-23T11:47:57.596Z,11.59
2023-02-23T11:48:57.611Z,11.52
2023-02-23T11:49:57.595Z,11.62
2023-02-23T11:50:57.568Z,11.62
2023-02-23T11:51:57.563Z,11.69
2023-02-23T11:52:57.576Z,11.74
2023-02-23T11:53:57.546Z,11.71
2023-02-23T11:54:57.555Z,11.61
2023-02-23T11:55:57.533Z,11.73
2023-02-23T11:57:06.364Z,11.71
2023-02-23T11:58:05.033Z,11.73
2023-02-23T11:59:05.012Z,11.77
2023-02-23T12:00:06.386Z,11.67
2023-02-23T12:00:57.465Z,11.46
2023-02-23T12:01:57.453Z,11.36
2023-02-23T12:02:57.518Z,11.48
2023-02-23T12:03:57.453Z,11.48
2023-02-23T12:04:58.202Z,11.43
2023-02-23T12:05:57.403Z,11.51
2023-02-23T12:06:57.455Z,11.43
2023-02-23T12:07:57.404Z,11.49
2023-02-23T12:08:57.382Z,11.45
2023-02-23T12:09:57.450Z,11.43
2023-02-23T12:10:57.431Z,11.43
2023-02-23T12:11:57.358Z,11.49
2023-02-23T12:12:57.354Z,11.45
2023-02-23T12:13:57.352Z,11.51
2023-02-23T12:14:57.503Z,11.56
2023-02-23T12:15:57.316Z,11.74
2023-02-23T12:16:57.318Z,11.73
2023-02-23T12:17:57.283Z,11.66
2023-02-23T12:18:57.289Z,11.64
2023-02-23T12:19:57.287Z,11.70
2023-02-23T12:20:57.261Z,11.87
2023-02-23T12:21:57.271Z,11.84
2023-02-23T12:22:57.228Z,11.85
2023-02-23T12:23:57.212Z,11.77
2023-02-23T12:24:57.226Z,11.80
2023-02-23T12:25:57.218Z,11.87
2023-02-23T12:26:57.202Z,11.87
2023-02-23T12:27:57.198Z,11.89
2023-02-23T12:28:57.190Z,11.89
2023-02-23T12:29:57.189Z,11.93
2023-02-23T12:30:57.230Z,11.85
2023-02-23T12:31:57.197Z,11.82
2023-02-23T12:32:57.122Z,11.85
2023-02-23T12:33:57.152Z,11.93
2023-02-23T12:34:57.101Z,12.05
2023-02-23T12:35:57.113Z,12.11
2023-02-23T12:36:57.106Z,12.05
2023-02-23T12:37:57.088Z,12.07
2023-02-23T12:38:57.082Z,12.03
2023-02-23T12:39:57.046Z,12.10
2023-02-23T12:40:57.035Z,11.93
2023-02-23T12:41:57.020Z,11.97
2023-02-23T12:42:57.016Z,12.07
2023-02-23T12:43:57.006Z,12.15
2023-02-23T12:44:57.000Z,12.14
2023-02-23T12:45:57.032Z,12.03
2023-02-23T12:46:56.971Z,12.00
2023-02-23T12:47:56.978Z,11.99
2023-02-23T12:48:56.944Z,11.93
2023-02-23T12:49:56.930Z,12.08
2023-02-23T12:50:56.921Z,12.07
2023-02-23T12:51:56.913Z,12.15
2023-02-23T12:52:56.888Z,11.97
2023-02-23T12:53:56.892Z,11.96
2023-02-23T12:54:56.876Z,11.89
2023-02-23T12:55:56.865Z,11.95
2023-02-23T12:56:56.855Z,11.85
2023-02-23T12:57:56.845Z,11.91
2023-02-23T12:58:56.836Z,11.91
2023-02-23T12:59:56.835Z,11.95
2023-02-23T13:00:56.847Z,11.84
2023-02-23T13:01:56.814Z,11.82
2023-02-23T13:02:56.785Z,11.85
2023-02-23T13:03:56.772Z,11.87
2023-02-23T13:04:56.773Z,11.85
2023-02-23T13:05:56.761Z,11.69
2023-02-23T13:06:56.746Z,11.71
2023-02-23T13:08:04.677Z,11.64
2023-02-23T13:08:57.732Z,11.77
2023-02-23T13:09:56.717Z,11.70
2023-02-23T13:10:56.716Z,11.66
2023-02-23T13:11:56.701Z,11.49
2023-02-23T13:12:56.724Z,11.48